sensor_id;sensor_type;location;lat;lon;timestamp;temperature;humidity
578;DHT22;275;48.492;9.214;2022-12-24T00:01:29;13.50;46.90
578;DHT22;275;48.492;9.214;2022-12-24T00:03:55;13.60;46.10
578;DHT22;275;48.492;9.214;2022-12-24T00:06:23;13.90;44.10
578;DHT22;275;48.492;9.214;2022-12-24T00:08:50;14.00;44.30
578;DHT22;275;48.492;9.214;2022-12-24T00:11:17;13.60;45.20
578;DHT22;275;48.492;9.214;2022-12-24T00:13:45;13.70;44.20
578;DHT22;275;48.492;9.214;2022-12-24T00:16:12;13.30;44.60
578;DHT22;275;48.492;9.214;2022-12-24T00:18:39;13.20;45.10
578;DHT22;275;48.492;9.214;2022-12-24T00:21:06;13.10;44.20
578;DHT22;275;48.492;9.214;2022-12-24T00:23:33;13.10;44.60
578;DHT22;275;48.492;9.214;2022-12-24T00:26:00;12.80;44.50
578;DHT22;275;48.492;9.214;2022-12-24T00:28:26;13.20;44.00
578;DHT22;275;48.492;9.214;2022-12-24T00:30:55;12.90;44.10
578;DHT22;275;48.492;9.214;2022-12-24T00:33:21;13.10;43.90
578;DHT22;275;48.492;9.214;2022-12-24T00:35:49;13.30;43.30
578;DHT22;275;48.492;9.214;2022-12-24T00:38:17;13.40;42.90
578;DHT22;275;48.492;9.214;2022-12-24T00:40:43;13.30;42.70
578;DHT22;275;48.492;9.214;2022-12-24T00:43:10;13.60;42.00
578;DHT22;275;48.492;9.214;2022-12-24T00:45:37;13.50;41.60
578;DHT22;275;48.492;9.214;2022-12-24T00:48:05;13.20;42.10
578;DHT22;275;48.492;9.214;2022-12-24T00:50:32;13.40;41.40
578;DHT22;275;48.492;9.214;2022-12-24T00:52:59;13.50;41.10
578;DHT22;275;48.492;9.214;2022-12-24T00:55:26;13.50;41.10
578;DHT22;275;48.492;9.214;2022-12-24T00:57:55;13.30;41.40
578;DHT22;275;48.492;9.214;2022-12-24T01:00:22;13.30;41.60
578;DHT22;275;48.492;9.214;2022-12-24T01:02:48;13.30;41.30
578;DHT22;275;48.492;9.214;2022-12-24T01:05:17;13.60;41.30
578;DHT22;275;48.492;9.214;2022-12-24T01:07:45;14.20;39.40
578;DHT22;275;48.492;9.214;2022-12-24T01:10:13;13.90;39.70
578;DHT22;275;48.492;9.214;2022-12-24T01:12:40;13.20;41.30
578;DHT22;275;48.492;9.214;2022-12-24T01:15:08;13.60;40.80
578;DHT22;275;48.492;9.214;2022-12-24T01:17:35;13.60;40.30
578;DHT22;275;48.492;9.214;2022-12-24T01:20:02;13.70;40.20
578;DHT22;275;48.492;9.214;2022-12-24T01:22:32;13.70;41.00
578;DHT22;275;48.492;9.214;2022-12-24T01:24:59;13.60;40.90
578;DHT22;275;48.492;9.214;2022-12-24T01:27:26;13.50;40.40
578;DHT22;275;48.492;9.214;2022-12-24T01:29:53;13.40;40.50
578;DHT22;275;48.492;9.214;2022-12-24T01:32:20;13.50;39.50
578;DHT22;275;48.492;9.214;2022-12-24T01:34:47;13.10;40.80
578;DHT22;275;48.492;9.214;2022-12-24T01:37:13;13.80;39.30
578;DHT22;275;48.492;9.214;2022-12-24T01:39:42;14.30;38.00
578;DHT22;275;48.492;9.214;2022-12-24T01:42:16;13.90;38.50
578;DHT22;275;48.492;9.214;2022-12-24T01:48:01;13.50;39.50
578;DHT22;275;48.492;9.214;2022-12-24T01:50:28;13.30;40.10
578;DHT22;275;48.492;9.214;2022-12-24T01:52:55;13.20;40.00
578;DHT22;275;48.492;9.214;2022-12-24T01:55:25;13.10;40.50
578;DHT22;275;48.492;9.214;2022-12-24T01:57:54;12.80;40.90
578;DHT22;275;48.492;9.214;2022-12-24T02:00:22;12.70;41.10
578;DHT22;275;48.492;9.214;2022-12-24T02:02:50;12.70;41.10
578;DHT22;275;48.492;9.214;2022-12-24T02:05:23;12.70;41.20
578;DHT22;275;48.492;9.214;2022-12-24T02:07:52;13.30;40.10
578;DHT22;275;48.492;9.214;2022-12-24T02:10:19;13.80;39.00
578;DHT22;275;48.492;9.214;2022-12-24T02:12:47;14.00;38.40
578;DHT22;275;48.492;9.214;2022-12-24T02:15:17;14.00;38.10
578;DHT22;275;48.492;9.214;2022-12-24T02:17:50;14.20;37.60
578;DHT22;275;48.492;9.214;2022-12-24T02:20:57;14.50;37.00
578;DHT22;275;48.492;9.214;2022-12-24T02:23:47;14.50;37.10
578;DHT22;275;48.492;9.214;2022-12-24T02:26:28;14.40;37.50
578;DHT22;275;48.492;9.214;2022-12-24T02:29:17;14.20;37.70
578;DHT22;275;48.492;9.214;2022-12-24T02:31:51;13.70;38.90
578;DHT22;275;48.492;9.214;2022-12-24T02:34:26;13.30;40.10
578;DHT22;275;48.492;9.214;2022-12-24T02:36:58;13.10;40.90
578;DHT22;275;48.492;9.214;2022-12-24T02:39:33;13.00;41.50
578;DHT22;275;48.492;9.214;2022-12-24T02:42:04;12.80;41.90
578;DHT22;275;48.492;9.214;2022-12-24T02:44:36;13.10;41.30
578;DHT22;275;48.492;9.214;2022-12-24T02:47:06;13.30;40.20
578;DHT22;275;48.492;9.214;2022-12-24T02:49:34;13.00;41.10
578;DHT22;275;48.492;9.214;2022-12-24T02:52:01;12.70;41.90
578;DHT22;275;48.492;9.214;2022-12-24T02:54:28;13.20;41.00
578;DHT22;275;48.492;9.214;2022-12-24T02:57:07;13.10;41.00
578;DHT22;275;48.492;9.214;2022-12-24T02:59:57;13.40;40.10
578;DHT22;275;48.492;9.214;2022-12-24T03:02:39;13.80;39.20
578;DHT22;275;48.492;9.214;2022-12-24T03:05:16;13.70;38.80
578;DHT22;275;48.492;9.214;2022-12-24T03:07:53;13.90;38.60
578;DHT22;275;48.492;9.214;2022-12-24T03:10:26;13.90;38.50
578;DHT22;275;48.492;9.214;2022-12-24T03:12:56;14.10;37.90
578;DHT22;275;48.492;9.214;2022-12-24T03:15:27;13.50;39.20
578;DHT22;275;48.492;9.214;2022-12-24T03:17:58;13.70;38.80
578;DHT22;275;48.492;9.214;2022-12-24T03:20:29;13.40;39.30
578;DHT22;275;48.492;9.214;2022-12-24T03:22:57;13.60;38.70
578;DHT22;275;48.492;9.214;2022-12-24T03:25:25;13.60;38.70
578;DHT22;275;48.492;9.214;2022-12-24T03:27:53;13.60;38.70
578;DHT22;275;48.492;9.214;2022-12-24T03:30:21;13.80;38.30
578;DHT22;275;48.492;9.214;2022-12-24T03:32:48;13.70;38.40
578;DHT22;275;48.492;9.214;2022-12-24T03:35:17;14.20;37.50
578;DHT22;275;48.492;9.214;2022-12-24T03:37:43;14.30;37.10
578;DHT22;275;48.492;9.214;2022-12-24T03:40:11;14.40;37.00
578;DHT22;275;48.492;9.214;2022-12-24T03:42:38;14.10;37.30
578;DHT22;275;48.492;9.214;2022-12-24T03:45:05;13.50;38.50
578;DHT22;275;48.492;9.214;2022-12-24T03:47:32;13.50;38.90
578;DHT22;275;48.492;9.214;2022-12-24T03:49:59;13.90;38.00
578;DHT22;275;48.492;9.214;2022-12-24T03:52:27;13.70;38.30
578;DHT22;275;48.492;9.214;2022-12-24T03:54:54;13.90;38.10
578;DHT22;275;48.492;9.214;2022-12-24T03:57:21;13.50;38.70
578;DHT22;275;48.492;9.214;2022-12-24T03:59:47;13.40;38.80
578;DHT22;275;48.492;9.214;2022-12-24T04:02:15;13.20;39.60
578;DHT22;275;48.492;9.214;2022-12-24T04:04:41;13.10;39.90
578;DHT22;275;48.492;9.214;2022-12-24T04:07:08;13.10;39.80
578;DHT22;275;48.492;9.214;2022-12-24T04:09:38;12.90;40.90
578;DHT22;275;48.492;9.214;2022-12-24T04:12:05;13.10;40.50
578;DHT22;275;48.492;9.214;2022-12-24T04:14:32;13.50;39.60
578;DHT22;275;48.492;9.214;2022-12-24T04:16:59;13.70;38.80
578;DHT22;275;48.492;9.214;2022-12-24T04:19:26;13.40;39.10
578;DHT22;275;48.492;9.214;2022-12-24T04:21:53;13.50;39.10
578;DHT22;275;48.492;9.214;2022-12-24T04:24:19;13.30;39.40
578;DHT22;275;48.492;9.214;2022-12-24T04:26:48;13.20;40.00
578;DHT22;275;48.492;9.214;2022-12-24T04:29:14;13.50;39.30
578;DHT22;275;48.492;9.214;2022-12-24T04:31:41;13.70;38.70
578;DHT22;275;48.492;9.214;2022-12-24T04:34:08;14.10;38.00
578;DHT22;275;48.492;9.214;2022-12-24T04:36:35;14.30;37.30
578;DHT22;275;48.492;9.214;2022-12-24T04:39:02;14.10;37.30
578;DHT22;275;48.492;9.214;2022-12-24T04:41:29;13.80;38.00
578;DHT22;275;48.492;9.214;2022-12-24T04:43:58;13.60;38.50
578;DHT22;275;48.492;9.214;2022-12-24T04:46:26;13.20;39.40
578;DHT22;275;48.492;9.214;2022-12-24T04:48:55;13.30;38.70
578;DHT22;275;48.492;9.214;2022-12-24T04:51:22;13.40;39.30
578;DHT22;275;48.492;9.214;2022-12-24T04:53:50;13.70;37.30
578;DHT22;275;48.492;9.214;2022-12-24T04:56:19;13.50;38.00
578;DHT22;275;48.492;9.214;2022-12-24T04:58:46;13.20;38.50
578;DHT22;275;48.492;9.214;2022-12-24T05:01:17;13.30;38.70
578;DHT22;275;48.492;9.214;2022-12-24T05:03:44;13.40;38.00
578;DHT22;275;48.492;9.214;2022-12-24T05:06:12;13.30;38.60
578;DHT22;275;48.492;9.214;2022-12-24T05:08:40;13.50;38.10
578;DHT22;275;48.492;9.214;2022-12-24T05:11:08;13.40;38.40
578;DHT22;275;48.492;9.214;2022-12-24T05:13:35;13.70;37.70
578;DHT22;275;48.492;9.214;2022-12-24T05:16:04;13.60;37.70
578;DHT22;275;48.492;9.214;2022-12-24T05:18:32;13.50;38.40
578;DHT22;275;48.492;9.214;2022-12-24T05:20:58;13.80;37.70
578;DHT22;275;48.492;9.214;2022-12-24T05:23:25;13.70;37.20
578;DHT22;275;48.492;9.214;2022-12-24T05:26:15;13.20;39.20
578;DHT22;275;48.492;9.214;2022-12-24T05:28:48;13.40;38.80
578;DHT22;275;48.492;9.214;2022-12-24T05:31:15;13.40;38.50
578;DHT22;275;48.492;9.214;2022-12-24T05:33:43;13.50;38.70
578;DHT22;275;48.492;9.214;2022-12-24T05:36:10;13.60;38.60
578;DHT22;275;48.492;9.214;2022-12-24T05:38:37;13.20;40.00
578;DHT22;275;48.492;9.214;2022-12-24T05:41:05;13.00;41.40
578;DHT22;275;48.492;9.214;2022-12-24T05:43:31;12.80;41.90
578;DHT22;275;48.492;9.214;2022-12-24T05:45:58;13.00;42.10
578;DHT22;275;48.492;9.214;2022-12-24T05:48:26;13.20;41.60
578;DHT22;275;48.492;9.214;2022-12-24T05:50:54;13.20;41.30
578;DHT22;275;48.492;9.214;2022-12-24T05:53:21;12.90;41.80
578;DHT22;275;48.492;9.214;2022-12-24T05:55:48;12.60;42.40
578;DHT22;275;48.492;9.214;2022-12-24T05:58:15;12.40;42.90
578;DHT22;275;48.492;9.214;2022-12-24T06:00:42;12.60;42.50
578;DHT22;275;48.492;9.214;2022-12-24T06:03:09;12.60;41.90
578;DHT22;275;48.492;9.214;2022-12-24T06:05:35;12.50;41.60
578;DHT22;275;48.492;9.214;2022-12-24T06:08:04;12.70;41.80
578;DHT22;275;48.492;9.214;2022-12-24T06:10:31;12.80;41.90
578;DHT22;275;48.492;9.214;2022-12-24T06:12:58;12.50;42.00
578;DHT22;275;48.492;9.214;2022-12-24T06:15:25;12.50;42.30
578;DHT22;275;48.492;9.214;2022-12-24T06:17:52;12.80;41.20
578;DHT22;275;48.492;9.214;2022-12-24T06:20:18;12.70;41.40
578;DHT22;275;48.492;9.214;2022-12-24T06:22:45;12.40;41.50
578;DHT22;275;48.492;9.214;2022-12-24T06:25:13;12.50;41.70
578;DHT22;275;48.492;9.214;2022-12-24T06:27:40;12.60;41.10
578;DHT22;275;48.492;9.214;2022-12-24T06:30:08;12.40;41.40
578;DHT22;275;48.492;9.214;2022-12-24T06:32:35;12.30;41.70
578;DHT22;275;48.492;9.214;2022-12-24T06:35:02;12.30;42.20
578;DHT22;275;48.492;9.214;2022-12-24T06:37:29;12.10;41.50
578;DHT22;275;48.492;9.214;2022-12-24T06:39:56;11.80;42.50
578;DHT22;275;48.492;9.214;2022-12-24T06:42:24;12.20;41.80
578;DHT22;275;48.492;9.214;2022-12-24T06:44:51;12.40;40.90
578;DHT22;275;48.492;9.214;2022-12-24T06:47:17;12.30;40.80
578;DHT22;275;48.492;9.214;2022-12-24T06:49:44;12.40;40.90
578;DHT22;275;48.492;9.214;2022-12-24T06:52:11;12.40;40.70
578;DHT22;275;48.492;9.214;2022-12-24T06:54:38;12.40;40.90
578;DHT22;275;48.492;9.214;2022-12-24T06:57:05;12.60;40.40
578;DHT22;275;48.492;9.214;2022-12-24T06:59:33;12.50;41.00
578;DHT22;275;48.492;9.214;2022-12-24T07:02:00;12.70;40.00
578;DHT22;275;48.492;9.214;2022-12-24T07:04:27;12.70;39.80
578;DHT22;275;48.492;9.214;2022-12-24T07:06:53;12.80;39.50
578;DHT22;275;48.492;9.214;2022-12-24T07:09:20;12.70;39.50
578;DHT22;275;48.492;9.214;2022-12-24T07:11:47;13.10;38.70
578;DHT22;275;48.492;9.214;2022-12-24T07:14:14;12.60;39.60
578;DHT22;275;48.492;9.214;2022-12-24T07:16:42;12.50;39.20
578;DHT22;275;48.492;9.214;2022-12-24T07:19:09;12.80;39.20
578;DHT22;275;48.492;9.214;2022-12-24T07:21:35;13.20;37.70
578;DHT22;275;48.492;9.214;2022-12-24T07:24:03;12.80;37.80
578;DHT22;275;48.492;9.214;2022-12-24T07:26:29;12.90;37.90
578;DHT22;275;48.492;9.214;2022-12-24T07:28:56;13.00;37.90
578;DHT22;275;48.492;9.214;2022-12-24T07:31:23;13.00;37.70
578;DHT22;275;48.492;9.214;2022-12-24T07:33:51;13.50;36.70
578;DHT22;275;48.492;9.214;2022-12-24T07:36:20;13.60;36.00
578;DHT22;275;48.492;9.214;2022-12-24T07:38:47;13.60;36.10
578;DHT22;275;48.492;9.214;2022-12-24T07:41:14;13.10;37.20
578;DHT22;275;48.492;9.214;2022-12-24T07:43:41;13.70;36.00
578;DHT22;275;48.492;9.214;2022-12-24T07:46:08;14.10;35.30
578;DHT22;275;48.492;9.214;2022-12-24T07:48:35;14.00;34.90
578;DHT22;275;48.492;9.214;2022-12-24T07:51:03;13.70;35.70
578;DHT22;275;48.492;9.214;2022-12-24T07:53:30;13.80;35.40
578;DHT22;275;48.492;9.214;2022-12-24T07:55:58;13.80;35.00
578;DHT22;275;48.492;9.214;2022-12-24T07:58:25;13.60;35.10
578;DHT22;275;48.492;9.214;2022-12-24T08:00:56;13.50;36.50
578;DHT22;275;48.492;9.214;2022-12-24T08:03:23;13.50;35.50
578;DHT22;275;48.492;9.214;2022-12-24T08:05:50;13.70;35.10
578;DHT22;275;48.492;9.214;2022-12-24T08:08:19;13.60;35.30
578;DHT22;275;48.492;9.214;2022-12-24T08:10:46;13.80;35.00
578;DHT22;275;48.492;9.214;2022-12-24T08:13:13;13.80;34.90
578;DHT22;275;48.492;9.214;2022-12-24T08:15:40;13.80;34.80
578;DHT22;275;48.492;9.214;2022-12-24T08:18:08;13.40;35.90
578;DHT22;275;48.492;9.214;2022-12-24T08:20:37;13.30;36.00
578;DHT22;275;48.492;9.214;2022-12-24T08:23:05;13.30;35.80
578;DHT22;275;48.492;9.214;2022-12-24T08:25:34;13.00;36.40
578;DHT22;275;48.492;9.214;2022-12-24T08:28:01;12.90;36.50
578;DHT22;275;48.492;9.214;2022-12-24T08:30:27;13.00;36.40
578;DHT22;275;48.492;9.214;2022-12-24T08:32:54;13.20;36.10
578;DHT22;275;48.492;9.214;2022-12-24T08:35:21;13.60;34.90
578;DHT22;275;48.492;9.214;2022-12-24T08:37:48;13.20;35.80
578;DHT22;275;48.492;9.214;2022-12-24T08:40:15;13.40;35.60
578;DHT22;275;48.492;9.214;2022-12-24T08:42:43;13.60;35.30
578;DHT22;275;48.492;9.214;2022-12-24T08:45:11;13.80;35.00
578;DHT22;275;48.492;9.214;2022-12-24T08:47:38;14.20;33.90
578;DHT22;275;48.492;9.214;2022-12-24T08:50:06;13.70;35.60
578;DHT22;275;48.492;9.214;2022-12-24T08:52:33;13.30;36.80
578;DHT22;275;48.492;9.214;2022-12-24T08:55:00;13.10;36.30
578;DHT22;275;48.492;9.214;2022-12-24T08:57:27;13.10;37.10
578;DHT22;275;48.492;9.214;2022-12-24T08:59:55;13.30;36.30
578;DHT22;275;48.492;9.214;2022-12-24T09:02:22;13.60;35.90
578;DHT22;275;48.492;9.214;2022-12-24T09:04:48;13.60;35.40
578;DHT22;275;48.492;9.214;2022-12-24T09:07:15;13.60;36.20
578;DHT22;275;48.492;9.214;2022-12-24T09:09:42;13.60;36.20
578;DHT22;275;48.492;9.214;2022-12-24T09:12:09;13.70;35.70
578;DHT22;275;48.492;9.214;2022-12-24T09:14:36;13.60;37.10
578;DHT22;275;48.492;9.214;2022-12-24T09:17:04;14.20;36.30
578;DHT22;275;48.492;9.214;2022-12-24T09:19:31;14.10;36.80
578;DHT22;275;48.492;9.214;2022-12-24T09:21:57;13.50;36.60
578;DHT22;275;48.492;9.214;2022-12-24T09:24:24;13.50;36.60
578;DHT22;275;48.492;9.214;2022-12-24T09:26:51;13.40;36.30
578;DHT22;275;48.492;9.214;2022-12-24T09:29:18;13.80;35.40
578;DHT22;275;48.492;9.214;2022-12-24T09:31:45;14.20;34.60
578;DHT22;275;48.492;9.214;2022-12-24T09:34:13;14.60;33.20
578;DHT22;275;48.492;9.214;2022-12-24T09:36:40;14.30;33.20
578;DHT22;275;48.492;9.214;2022-12-24T09:39:07;14.10;33.70
578;DHT22;275;48.492;9.214;2022-12-24T09:41:41;14.20;33.20
578;DHT22;275;48.492;9.214;2022-12-24T09:44:21;14.10;33.90
578;DHT22;275;48.492;9.214;2022-12-24T09:46:52;13.80;33.80
578;DHT22;275;48.492;9.214;2022-12-24T09:49:24;13.80;34.40
578;DHT22;275;48.492;9.214;2022-12-24T09:51:54;13.60;34.20
578;DHT22;275;48.492;9.214;2022-12-24T09:54:24;13.80;34.10
578;DHT22;275;48.492;9.214;2022-12-24T09:56:54;14.10;33.60
578;DHT22;275;48.492;9.214;2022-12-24T09:59:26;13.90;33.40
578;DHT22;275;48.492;9.214;2022-12-24T10:01:54;14.10;33.60
578;DHT22;275;48.492;9.214;2022-12-24T10:04:27;14.90;32.30
578;DHT22;275;48.492;9.214;2022-12-24T10:07:04;15.60;30.90
578;DHT22;275;48.492;9.214;2022-12-24T10:09:39;15.50;30.00
578;DHT22;275;48.492;9.214;2022-12-24T10:12:13;14.50;32.40
578;DHT22;275;48.492;9.214;2022-12-24T10:14:52;14.20;32.70
578;DHT22;275;48.492;9.214;2022-12-24T10:17:29;14.00;32.40
578;DHT22;275;48.492;9.214;2022-12-24T10:20:13;13.50;33.50
578;DHT22;275;48.492;9.214;2022-12-24T10:22:50;13.50;34.40
578;DHT22;275;48.492;9.214;2022-12-24T10:25:21;14.10;33.90
578;DHT22;275;48.492;9.214;2022-12-24T10:27:50;14.60;32.20
578;DHT22;275;48.492;9.214;2022-12-24T10:30:19;15.10;31.60
578;DHT22;275;48.492;9.214;2022-12-24T10:32:49;15.00;31.40
578;DHT22;275;48.492;9.214;2022-12-24T10:35:22;15.10;32.50
578;DHT22;275;48.492;9.214;2022-12-24T10:37:50;15.60;30.30
578;DHT22;275;48.492;9.214;2022-12-24T10:40:27;15.90;30.40
578;DHT22;275;48.492;9.214;2022-12-24T10:42:54;15.80;30.40
578;DHT22;275;48.492;9.214;2022-12-24T10:45:23;16.00;30.00
578;DHT22;275;48.492;9.214;2022-12-24T10:47:54;15.60;31.00
578;DHT22;275;48.492;9.214;2022-12-24T10:50:31;15.20;31.40
578;DHT22;275;48.492;9.214;2022-12-24T10:53:03;14.40;33.10
578;DHT22;275;48.492;9.214;2022-12-24T10:55:32;14.20;33.40
578;DHT22;275;48.492;9.214;2022-12-24T10:58:00;14.40;33.30
578;DHT22;275;48.492;9.214;2022-12-24T11:00:28;14.50;32.80
578;DHT22;275;48.492;9.214;2022-12-24T11:03:15;14.50;33.10
578;DHT22;275;48.492;9.214;2022-12-24T11:05:59;14.30;33.60
578;DHT22;275;48.492;9.214;2022-12-24T11:08:26;14.20;34.30
578;DHT22;275;48.492;9.214;2022-12-24T11:10:55;14.60;33.70
578;DHT22;275;48.492;9.214;2022-12-24T11:13:24;14.60;33.00
578;DHT22;275;48.492;9.214;2022-12-24T11:16:00;13.80;34.80
578;DHT22;275;48.492;9.214;2022-12-24T11:18:27;14.00;34.80
578;DHT22;275;48.492;9.214;2022-12-24T11:20:56;14.80;33.50
578;DHT22;275;48.492;9.214;2022-12-24T11:23:26;15.00;32.70
578;DHT22;275;48.492;9.214;2022-12-24T11:25:53;15.20;31.70
578;DHT22;275;48.492;9.214;2022-12-24T11:28:22;15.40;31.80
578;DHT22;275;48.492;9.214;2022-12-24T11:31:01;15.50;32.20
578;DHT22;275;48.492;9.214;2022-12-24T11:33:29;15.00;32.60
578;DHT22;275;48.492;9.214;2022-12-24T11:36:00;14.20;33.90
578;DHT22;275;48.492;9.214;2022-12-24T11:38:30;14.50;34.50
578;DHT22;275;48.492;9.214;2022-12-24T11:41:06;15.40;32.30
578;DHT22;275;48.492;9.214;2022-12-24T11:43:36;15.40;32.60
578;DHT22;275;48.492;9.214;2022-12-24T11:46:16;15.30;32.50
578;DHT22;275;48.492;9.214;2022-12-24T11:48:43;16.20;31.00
578;DHT22;275;48.492;9.214;2022-12-24T11:51:24;16.20;30.60
578;DHT22;275;48.492;9.214;2022-12-24T11:53:58;16.00;30.80
578;DHT22;275;48.492;9.214;2022-12-24T11:56:32;16.30;30.10
578;DHT22;275;48.492;9.214;2022-12-24T11:59:08;15.70;30.70
578;DHT22;275;48.492;9.214;2022-12-24T12:01:42;15.60;31.00
578;DHT22;275;48.492;9.214;2022-12-24T12:04:17;15.40;31.40
578;DHT22;275;48.492;9.214;2022-12-24T12:06:49;14.90;32.60
578;DHT22;275;48.492;9.214;2022-12-24T12:09:19;15.00;32.50
578;DHT22;275;48.492;9.214;2022-12-24T12:11:51;14.50;33.30
578;DHT22;275;48.492;9.214;2022-12-24T12:14:21;14.50;33.90
578;DHT22;275;48.492;9.214;2022-12-24T12:16:56;14.50;33.60
578;DHT22;275;48.492;9.214;2022-12-24T12:19:32;14.20;33.80
578;DHT22;275;48.492;9.214;2022-12-24T12:22:05;14.90;33.20
578;DHT22;275;48.492;9.214;2022-12-24T12:24:36;14.60;32.70
578;DHT22;275;48.492;9.214;2022-12-24T12:27:12;14.70;33.40
578;DHT22;275;48.492;9.214;2022-12-24T12:29:45;14.70;33.20
578;DHT22;275;48.492;9.214;2022-12-24T12:32:25;14.60;33.50
578;DHT22;275;48.492;9.214;2022-12-24T12:35:00;15.00;32.90
578;DHT22;275;48.492;9.214;2022-12-24T12:37:34;15.40;32.20
578;DHT22;275;48.492;9.214;2022-12-24T12:40:04;15.90;31.50
578;DHT22;275;48.492;9.214;2022-12-24T12:42:38;15.40;32.70
578;DHT22;275;48.492;9.214;2022-12-24T12:48:08;15.60;32.00
578;DHT22;275;48.492;9.214;2022-12-24T12:50:42;16.00;31.10
578;DHT22;275;48.492;9.214;2022-12-24T12:53:35;17.00;30.00
578;DHT22;275;48.492;9.214;2022-12-24T12:56:12;17.40;29.10
578;DHT22;275;48.492;9.214;2022-12-24T12:58:45;18.10;27.80
578;DHT22;275;48.492;9.214;2022-12-24T13:01:18;17.50;28.30
578;DHT22;275;48.492;9.214;2022-12-24T13:04:09;16.10;30.70
578;DHT22;275;48.492;9.214;2022-12-24T13:07:14;15.10;31.80
578;DHT22;275;48.492;9.214;2022-12-24T13:10:03;14.80;33.40
578;DHT22;275;48.492;9.214;2022-12-24T13:12:45;15.00;33.80
578;DHT22;275;48.492;9.214;2022-12-24T13:15:34;15.10;32.90
578;DHT22;275;48.492;9.214;2022-12-24T13:18:19;15.00;32.70
578;DHT22;275;48.492;9.214;2022-12-24T13:20:49;14.90;33.50
578;DHT22;275;48.492;9.214;2022-12-24T13:23:18;15.10;33.80
578;DHT22;275;48.492;9.214;2022-12-24T13:25:49;15.60;32.00
578;DHT22;275;48.492;9.214;2022-12-24T13:28:33;15.60;32.00
578;DHT22;275;48.492;9.214;2022-12-24T13:31:23;15.50;32.20
578;DHT22;275;48.492;9.214;2022-12-24T13:33:53;16.20;31.30
578;DHT22;275;48.492;9.214;2022-12-24T13:36:20;16.90;30.10
578;DHT22;275;48.492;9.214;2022-12-24T13:38:47;17.30;29.40
578;DHT22;275;48.492;9.214;2022-12-24T13:44:24;17.10;29.70
578;DHT22;275;48.492;9.214;2022-12-24T13:47:00;16.80;29.90
578;DHT22;275;48.492;9.214;2022-12-24T13:49:33;15.60;33.10
578;DHT22;275;48.492;9.214;2022-12-24T13:52:18;15.80;31.90
578;DHT22;275;48.492;9.214;2022-12-24T13:54:58;15.90;32.00
578;DHT22;275;48.492;9.214;2022-12-24T13:57:32;16.30;31.00
578;DHT22;275;48.492;9.214;2022-12-24T14:00:21;16.30;30.90
578;DHT22;275;48.492;9.214;2022-12-24T14:02:51;16.40;30.60
578;DHT22;275;48.492;9.214;2022-12-24T14:05:22;16.90;29.90
578;DHT22;275;48.492;9.214;2022-12-24T14:07:51;16.60;30.30
578;DHT22;275;48.492;9.214;2022-12-24T14:10:22;16.70;30.10
578;DHT22;275;48.492;9.214;2022-12-24T14:12:50;16.20;30.80
578;DHT22;275;48.492;9.214;2022-12-24T14:18:30;16.60;30.30
578;DHT22;275;48.492;9.214;2022-12-24T14:20:59;17.00;29.70
578;DHT22;275;48.492;9.214;2022-12-24T14:23:43;17.20;29.30
578;DHT22;275;48.492;9.214;2022-12-24T14:26:14;17.50;28.80
578;DHT22;275;48.492;9.214;2022-12-24T14:28:44;16.70;29.70
578;DHT22;275;48.492;9.214;2022-12-24T14:31:15;16.50;30.20
578;DHT22;275;48.492;9.214;2022-12-24T14:33:44;16.20;30.40
578;DHT22;275;48.492;9.214;2022-12-24T14:36:12;16.20;30.70
578;DHT22;275;48.492;9.214;2022-12-24T14:38:42;16.10;30.80
578;DHT22;275;48.492;9.214;2022-12-24T14:41:21;16.00;31.10
578;DHT22;275;48.492;9.214;2022-12-24T14:43:59;15.60;31.70
578;DHT22;275;48.492;9.214;2022-12-24T14:46:33;15.50;31.90
578;DHT22;275;48.492;9.214;2022-12-24T14:49:13;15.40;32.30
578;DHT22;275;48.492;9.214;2022-12-24T14:51:51;15.90;31.80
578;DHT22;275;48.492;9.214;2022-12-24T14:54:30;16.00;31.60
578;DHT22;275;48.492;9.214;2022-12-24T14:57:18;16.10;31.40
578;DHT22;275;48.492;9.214;2022-12-24T14:59:48;15.90;31.20
578;DHT22;275;48.492;9.214;2022-12-24T15:02:39;16.20;30.70
578;DHT22;275;48.492;9.214;2022-12-24T15:05:12;16.10;31.10
578;DHT22;275;48.492;9.214;2022-12-24T15:07:42;15.70;31.70
578;DHT22;275;48.492;9.214;2022-12-24T15:10:26;15.30;32.50
578;DHT22;275;48.492;9.214;2022-12-24T15:12:54;15.30;32.40
578;DHT22;275;48.492;9.214;2022-12-24T15:15:23;15.40;32.10
578;DHT22;275;48.492;9.214;2022-12-24T15:17:50;15.30;32.10
578;DHT22;275;48.492;9.214;2022-12-24T15:20:21;15.40;31.90
578;DHT22;275;48.492;9.214;2022-12-24T15:22:51;15.70;31.40
578;DHT22;275;48.492;9.214;2022-12-24T15:25:21;15.50;31.60
578;DHT22;275;48.492;9.214;2022-12-24T15:27:49;15.70;31.60
578;DHT22;275;48.492;9.214;2022-12-24T15:30:18;16.00;31.20
578;DHT22;275;48.492;9.214;2022-12-24T15:32:46;15.70;31.50
578;DHT22;275;48.492;9.214;2022-12-24T15:35:44;15.60;32.00
578;DHT22;275;48.492;9.214;2022-12-24T15:38:25;15.70;32.10
578;DHT22;275;48.492;9.214;2022-12-24T15:40:53;15.70;32.10
578;DHT22;275;48.492;9.214;2022-12-24T15:43:20;15.60;32.60
578;DHT22;275;48.492;9.214;2022-12-24T15:45:47;15.70;32.70
578;DHT22;275;48.492;9.214;2022-12-24T15:48:18;15.50;33.00
578;DHT22;275;48.492;9.214;2022-12-24T15:50:52;15.60;33.10
578;DHT22;275;48.492;9.214;2022-12-24T15:53:23;15.60;33.00
578;DHT22;275;48.492;9.214;2022-12-24T15:56:06;15.70;32.50
578;DHT22;275;48.492;9.214;2022-12-24T15:58:35;15.60;32.60
578;DHT22;275;48.492;9.214;2022-12-24T16:01:07;15.40;33.20
578;DHT22;275;48.492;9.214;2022-12-24T16:03:57;15.30;33.40
578;DHT22;275;48.492;9.214;2022-12-24T16:06:26;15.20;33.70
578;DHT22;275;48.492;9.214;2022-12-24T16:08:54;15.20;33.60
578;DHT22;275;48.492;9.214;2022-12-24T16:11:23;15.20;33.40
578;DHT22;275;48.492;9.214;2022-12-24T16:14:06;15.10;33.70
578;DHT22;275;48.492;9.214;2022-12-24T16:16:38;15.00;34.10
578;DHT22;275;48.492;9.214;2022-12-24T16:19:06;15.20;33.70
578;DHT22;275;48.492;9.214;2022-12-24T16:21:42;15.20;33.60
578;DHT22;275;48.492;9.214;2022-12-24T16:24:14;15.30;33.10
578;DHT22;275;48.492;9.214;2022-12-24T16:26:42;15.10;33.60
578;DHT22;275;48.492;9.214;2022-12-24T16:29:09;14.90;34.40
578;DHT22;275;48.492;9.214;2022-12-24T16:31:42;14.90;34.60
578;DHT22;275;48.492;9.214;2022-12-24T16:34:12;14.40;35.50
578;DHT22;275;48.492;9.214;2022-12-24T16:36:42;14.40;35.60
578;DHT22;275;48.492;9.214;2022-12-24T16:39:17;14.60;35.80
578;DHT22;275;48.492;9.214;2022-12-24T16:41:52;14.70;35.70
578;DHT22;275;48.492;9.214;2022-12-24T16:44:36;14.80;35.40
578;DHT22;275;48.492;9.214;2022-12-24T16:47:03;14.70;35.90
578;DHT22;275;48.492;9.214;2022-12-24T16:49:31;14.80;35.80
578;DHT22;275;48.492;9.214;2022-12-24T16:51:59;14.70;35.90
578;DHT22;275;48.492;9.214;2022-12-24T16:54:26;14.70;36.30
578;DHT22;275;48.492;9.214;2022-12-24T16:56:54;14.80;35.90
578;DHT22;275;48.492;9.214;2022-12-24T16:59:23;14.90;36.50
578;DHT22;275;48.492;9.214;2022-12-24T17:01:50;14.90;35.70
578;DHT22;275;48.492;9.214;2022-12-24T17:04:18;14.90;35.80
578;DHT22;275;48.492;9.214;2022-12-24T17:06:47;15.00;35.60
578;DHT22;275;48.492;9.214;2022-12-24T17:09:15;15.20;35.10